Аэропорт: Мурманск. Мурманск

ICAO: ULMM

METAR:
2020-06-02 07:30:00
ULMM 020730Z 17003MPS CAVOK 19/07 Q1018 R13/110070 NOSIG RMK QFE757
METAR:
2020-06-02 04:53:00
TAF ULMM 020453Z 0206/0306 19003G08MPS 9999 SCT050 TEMPO 0211/0222 15005G10MPS 5000 -TSRA BKN030CB BECMG 0222/0223 BKN020 TEMPO 0223/0306 04003MPS 4000 -SHRA BR SCT011 BKN020CB